createdAt,value
2019-02-11T00:01:00.110Z,97737.33
2019-02-11T00:04:15.615Z,97739.62
2019-02-11T00:07:31.170Z,97736.82
2019-02-11T00:10:46.741Z,97753.33
2019-02-11T00:14:02.630Z,97760.06
2019-02-11T00:17:18.154Z,97775.45
2019-02-11T00:20:33.507Z,97785.08
2019-02-11T00:23:48.659Z,97791.18
2019-02-11T00:27:03.959Z,97792.47
2019-02-11T00:30:19.371Z,97798.54
2019-02-11T00:33:34.610Z,97814.34
2019-02-11T00:36:49.965Z,97811.78
2019-02-11T00:40:05.428Z,97829.05
2019-02-11T00:43:20.873Z,97839.23
2019-02-11T00:50:06.431Z,97848.65
2019-02-11T00:53:21.873Z,97850.43
2019-02-11T00:56:37.740Z,97845.34
2019-02-11T00:59:53.092Z,97855.88
2019-02-11T01:03:08.347Z,97861.12
2019-02-11T01:06:23.801Z,97865.55
2019-02-11T01:09:39.594Z,97875.09
2019-02-11T01:12:54.810Z,97875.33
2019-02-11T01:16:10.281Z,97883.63
2019-02-11T01:19:25.743Z,97887.16
2019-02-11T01:22:41.282Z,97896.45
2019-02-11T01:25:56.835Z,97904.31
2019-02-11T01:29:12.191Z,97915.13
2019-02-11T01:32:27.666Z,97926.56
2019-02-11T01:35:43.118Z,97925.05
2019-02-11T01:38:58.222Z,97925.56
2019-02-11T01:42:13.615Z,97931.01
2019-02-11T01:45:29.059Z,97934.83
2019-02-11T01:48:45.001Z,97954.91
2019-02-11T01:52:00.074Z,97955.80
2019-02-11T01:55:15.218Z,97969.14
2019-02-11T01:58:30.686Z,97967.13
2019-02-11T02:01:46.154Z,97984.55
2019-02-11T02:05:01.386Z,97974.77
2019-02-11T02:08:16.735Z,97988.39
2019-02-11T02:11:32.186Z,97993.59
2019-02-11T02:14:47.552Z,98004.00
2019-02-11T02:18:03.102Z,98011.63
2019-02-11T02:21:18.962Z,98003.75
2019-02-11T02:24:35.534Z,98008.98
2019-02-11T02:27:50.694Z,98014.17
2019-02-11T02:31:06.250Z,98016.09
2019-02-11T02:34:22.404Z,98020.43
2019-02-11T02:37:38.242Z,98022.09
2019-02-11T02:40:53.742Z,98039.36
2019-02-11T02:44:08.996Z,98045.17
2019-02-11T02:47:23.984Z,98053.04
2019-02-11T02:50:39.059Z,98059.63
2019-02-11T02:53:54.442Z,98062.19
2019-02-11T02:57:09.904Z,98071.09
2019-02-11T03:00:25.269Z,98077.97
2019-02-11T03:03:41.587Z,98081.48
2019-02-11T03:06:56.773Z,98085.82
2019-02-11T03:10:12.307Z,98083.79
2019-02-11T03:13:27.485Z,98091.95
2019-02-11T03:16:42.726Z,98100.55
2019-02-11T03:19:58.185Z,98097.27
2019-02-11T03:23:13.740Z,98110.95
2019-02-11T03:26:29.207Z,98110.21
2019-02-11T03:29:44.655Z,98119.81
2019-02-11T03:33:00.212Z,98124.75
2019-02-11T03:36:15.675Z,98128.06
2019-02-11T03:39:30.797Z,98132.48
2019-02-11T03:42:46.019Z,98150.27
2019-02-11T03:46:01.328Z,98148.94
2019-02-11T03:49:17.956Z,98165.53
2019-02-11T03:52:33.759Z,98174.42
2019-02-11T03:55:49.215Z,98184.50
2019-02-11T03:59:04.973Z,98191.68
2019-02-11T04:02:20.538Z,98197.39
2019-02-11T04:05:35.907Z,98206.05
2019-02-11T04:08:51.453Z,98210.30
2019-02-11T04:12:06.647Z,98218.36
2019-02-11T04:15:22.412Z,98230.57
2019-02-11T04:18:37.733Z,98233.50
2019-02-11T04:22:18.442Z,98242.13
2019-02-11T04:25:33.795Z,98246.94
2019-02-11T04:28:49.253Z,98251.22
2019-02-11T04:32:04.493Z,98264.84
2019-02-11T04:35:19.757Z,98262.59
2019-02-11T04:38:35.003Z,98277.71
2019-02-11T04:41:50.262Z,98295.88
2019-02-11T04:45:05.402Z,98294.80
2019-02-11T04:48:21.496Z,98299.19
2019-02-11T04:51:36.827Z,98308.73
2019-02-11T04:54:52.452Z,98317.44
2019-02-11T04:58:07.747Z,98317.28
2019-02-11T05:01:23.200Z,98324.87
2019-02-11T05:04:39.334Z,98325.91
2019-02-11T05:07:54.727Z,98333.26
2019-02-11T05:11:09.863Z,98335.80
2019-02-11T05:14:25.045Z,98336.53
2019-02-11T05:17:41.120Z,98346.42
2019-02-11T05:20:56.209Z,98355.52
2019-02-11T05:24:11.389Z,98356.44
2019-02-11T05:27:26.739Z,98363.09
2019-02-11T05:30:41.881Z,98368.95
2019-02-11T05:33:57.481Z,98368.92
2019-02-11T05:37:12.918Z,98373.50
2019-02-11T05:40:28.364Z,98376.04
2019-02-11T05:43:43.702Z,98384.63
2019-02-11T05:46:59.492Z,98396.55
2019-02-11T05:50:14.929Z,98394.59
2019-02-11T05:53:30.374Z,98411.82
2019-02-11T05:56:45.775Z,98416.14
2019-02-11T06:00:01.209Z,98418.73
2019-02-11T06:03:16.304Z,98428.45
2019-02-11T06:06:31.799Z,98435.71
2019-02-11T06:09:47.252Z,98436.91
2019-02-11T06:13:02.595Z,98446.24
2019-02-11T06:16:18.063Z,98446.47
2019-02-11T06:19:33.233Z,98457.69
2019-02-11T06:22:48.760Z,98455.53
2019-02-11T06:26:04.314Z,98464.20
2019-02-11T06:29:19.871Z,98476.73
2019-02-11T06:32:35.327Z,98480.77
2019-02-11T06:35:50.584Z,98488.10
2019-02-11T06:39:05.999Z,98498.92
2019-02-11T06:42:22.147Z,98504.98
2019-02-11T06:45:38.063Z,98509.08
2019-02-11T06:48:53.630Z,98522.45
2019-02-11T06:52:09.496Z,98527.14
2019-02-11T06:55:25.675Z,98529.62
2019-02-11T06:58:41.041Z,98541.55
2019-02-11T07:01:56.578Z,98546.19
2019-02-11T07:05:12.036Z,98557.69
2019-02-11T07:08:27.313Z,98572.58
2019-02-11T07:11:43.364Z,98575.47
2019-02-11T07:14:58.934Z,98584.36
2019-02-11T07:18:14.263Z,98597.28
2019-02-11T07:21:29.412Z,98596.83
2019-02-11T07:24:44.763Z,98608.64
2019-02-11T07:27:59.912Z,98613.13
2019-02-11T07:31:15.276Z,98612.17
2019-02-11T07:34:30.823Z,98626.11
2019-02-11T07:37:46.378Z,98634.63
2019-02-11T07:41:01.951Z,98640.26
2019-02-11T07:44:20.818Z,98650.70
2019-02-11T07:47:36.124Z,98650.55
2019-02-11T07:50:52.048Z,98649.95
2019-02-11T07:54:07.447Z,98655.72
2019-02-11T07:57:22.797Z,98666.47
2019-02-11T08:00:38.256Z,98678.81
2019-02-11T08:03:53.712Z,98683.13
2019-02-11T08:07:09.169Z,98694.99
2019-02-11T08:10:24.653Z,98701.74
2019-02-11T08:13:39.984Z,98698.63
2019-02-11T08:16:55.237Z,98708.27
2019-02-11T08:20:10.796Z,98723.16
2019-02-11T08:23:26.339Z,98723.14
2019-02-11T08:26:42.261Z,98725.40
2019-02-11T08:29:58.367Z,98735.56
2019-02-11T08:33:13.627Z,98748.42
2019-02-11T08:36:29.083Z,98754.16
2019-02-11T08:39:44.660Z,98756.48
2019-02-11T08:42:59.996Z,98762.31
2019-02-11T08:46:15.350Z,98766.73
2019-02-11T08:49:31.119Z,98772.36
2019-02-11T08:52:46.569Z,98780.11
2019-02-11T08:56:03.381Z,98784.69
2019-02-11T08:59:19.363Z,98786.16
2019-02-11T09:02:34.868Z,98791.15
2019-02-11T09:05:50.202Z,98793.23
2019-02-11T09:09:05.700Z,98785.39
2019-02-11T09:12:20.934Z,98795.34
2019-02-11T09:15:36.698Z,98807.73
2019-02-11T09:18:51.956Z,98814.16
2019-02-11T09:22:08.314Z,98807.00
2019-02-11T09:25:23.885Z,98821.12
2019-02-11T09:28:39.135Z,98834.57
2019-02-11T09:31:55.251Z,98841.15
2019-02-11T09:35:10.518Z,98840.02
2019-02-11T09:38:26.515Z,98848.75
2019-02-11T09:41:41.883Z,98850.16
2019-02-11T09:44:57.026Z,98869.78
2019-02-11T09:48:13.030Z,98877.45
2019-02-11T09:51:30.403Z,98883.24
2019-02-11T09:54:45.755Z,98883.62
2019-02-11T09:58:01.206Z,98894.48
2019-02-11T10:01:16.559Z,98894.02
2019-02-11T10:04:32.740Z,98900.12
2019-02-11T10:07:47.960Z,98902.92
2019-02-11T10:11:03.446Z,98909.73
2019-02-11T10:14:19.553Z,98916.96
2019-02-11T10:17:35.069Z,98925.84
2019-02-11T10:20:50.511Z,98932.61
2019-02-11T10:24:06.082Z,98940.94
2019-02-11T10:27:20.805Z,98947.43
2019-02-11T10:30:36.797Z,98956.53
2019-02-11T10:33:52.217Z,98968.34
2019-02-11T10:37:08.066Z,98971.80
2019-02-11T10:40:23.668Z,98975.77
2019-02-11T10:43:39.154Z,98971.34
2019-02-11T10:46:56.974Z,98985.38
2019-02-11T10:50:14.978Z,98984.70
2019-02-11T10:53:30.427Z,98987.80
2019-02-11T10:56:46.135Z,99012.16
2019-02-11T11:00:01.494Z,99000.30
2019-02-11T11:03:16.850Z,99004.80
2019-02-11T11:06:30.567Z,99002.09
2019-02-11T11:09:47.332Z,98988.20
2019-02-11T11:13:03.203Z,98998.88
2019-02-11T11:16:16.821Z,98999.20
2019-02-11T11:19:30.378Z,98993.45
2019-02-11T11:22:44.250Z,99000.62
2019-02-11T11:25:58.053Z,99009.84
2019-02-11T11:29:11.753Z,99015.06
2019-02-11T11:32:25.435Z,99015.44
2019-02-11T11:35:39.157Z,99022.00
2019-02-11T11:38:52.655Z,99032.09
2019-02-11T11:42:06.206Z,99057.36
2019-02-11T11:45:19.984Z,99031.33
2019-02-11T11:48:33.477Z,99041.58
2019-02-11T11:51:47.286Z,99047.38
2019-02-11T11:55:00.890Z,99044.34
2019-02-11T11:58:14.618Z,99042.83
2019-02-11T12:01:28.101Z,99050.08
2019-02-11T12:04:41.735Z,99050.18
2019-02-11T12:07:55.322Z,99051.39
2019-02-11T12:11:08.815Z,99059.44
2019-02-11T12:14:22.376Z,99064.61
2019-02-11T12:17:35.982Z,99060.08
2019-02-11T12:20:49.734Z,99065.73
2019-02-11T12:24:03.309Z,99071.89
2019-02-11T12:27:16.833Z,99073.59
2019-02-11T12:30:30.741Z,99080.75
2019-02-11T12:33:44.912Z,99094.70
2019-02-11T12:36:58.627Z,99098.23
2019-02-11T12:40:12.443Z,99095.53
2019-02-11T12:43:26.001Z,99098.44
2019-02-11T12:46:39.493Z,99103.34
2019-02-11T12:49:53.423Z,99117.44
2019-02-11T12:53:07.035Z,99118.48
2019-02-11T12:56:20.708Z,99117.61
2019-02-11T12:59:34.280Z,99121.53
2019-02-11T13:02:48.003Z,99128.13
2019-02-11T13:06:02.092Z,99140.80
2019-02-11T13:09:15.963Z,99151.91
2019-02-11T13:12:29.597Z,99141.41
2019-02-11T13:15:59.839Z,99121.80
2019-02-11T13:18:58.703Z,99127.89
2019-02-11T13:22:12.237Z,99136.53
2019-02-11T13:25:26.070Z,99144.65
2019-02-11T13:28:39.646Z,99148.88
2019-02-11T13:31:53.242Z,99148.61
2019-02-11T13:35:07.558Z,99157.84
2019-02-11T13:38:21.184Z,99160.69
2019-02-11T13:41:34.869Z,99167.01
2019-02-11T13:44:48.356Z,99176.61
2019-02-11T13:48:02.043Z,99188.41
2019-02-11T13:51:15.741Z,99195.95
2019-02-11T13:54:29.258Z,99205.20
2019-02-11T13:57:43.193Z,99215.45
2019-02-11T14:00:56.909Z,99216.92
2019-02-11T14:04:10.703Z,99220.93
2019-02-11T14:07:25.577Z,99236.94
2019-02-11T14:10:41.033Z,99238.28
2019-02-11T14:14:02.806Z,99229.71
2019-02-11T14:17:32.340Z,99225.28
2019-02-11T14:21:05.903Z,99243.27
2019-02-11T14:24:19.671Z,99261.91
2019-02-11T14:27:33.481Z,99267.67
2019-02-11T14:30:47.375Z,99275.58
2019-02-11T14:34:00.997Z,99276.59
2019-02-11T14:37:14.704Z,99290.85
2019-02-11T14:40:30.475Z,99288.74
2019-02-11T14:43:44.677Z,99285.79
2019-02-11T14:46:58.717Z,99299.44
2019-02-11T14:50:12.658Z,99301.05
2019-02-11T14:53:26.261Z,99302.12
2019-02-11T14:56:39.824Z,99295.45
2019-02-11T14:59:53.668Z,99308.36
2019-02-11T15:03:07.300Z,99300.80
2019-02-11T15:06:21.092Z,99306.64
2019-02-11T15:09:34.811Z,99305.66
2019-02-11T15:12:48.878Z,99317.88
2019-02-11T15:16:02.680Z,99309.11
2019-02-11T15:19:16.206Z,99310.89
2019-02-11T15:22:30.017Z,99320.44
2019-02-11T15:25:43.755Z,99319.25
2019-02-11T15:28:57.466Z,99335.53
2019-02-11T15:32:11.226Z,99352.59
2019-02-11T15:35:24.976Z,99368.47
2019-02-11T15:38:38.463Z,99367.74
2019-02-11T15:41:52.207Z,99372.31
2019-02-11T15:45:07.895Z,99367.05
2019-02-11T15:48:21.591Z,99377.59
2019-02-11T15:51:35.511Z,99385.58
2019-02-11T15:54:49.120Z,99384.06
2019-02-11T15:58:02.911Z,99381.67
2019-02-11T16:01:16.434Z,99385.77
2019-02-11T16:04:30.220Z,99387.34
2019-02-11T16:07:44.266Z,99388.70
2019-02-11T16:11:01.454Z,99388.31
2019-02-11T16:14:13.692Z,99399.03
2019-02-11T16:17:27.496Z,99414.09
2019-02-11T16:20:41.259Z,99416.55
2019-02-11T16:23:55.126Z,99417.44
2019-02-11T16:27:09.391Z,99422.78
2019-02-11T16:30:23.231Z,99433.75
2019-02-11T16:33:36.966Z,99427.63
2019-02-11T16:36:50.614Z,99440.75
2019-02-11T16:40:06.469Z,99454.20
2019-02-11T16:43:20.070Z,99456.38
2019-02-11T16:46:33.570Z,99459.51
2019-02-11T16:49:47.570Z,99458.29
2019-02-11T16:53:01.393Z,99479.73
2019-02-11T16:56:15.361Z,99482.63
2019-02-11T16:59:29.572Z,99494.59
2019-02-11T17:02:43.929Z,99499.67
2019-02-11T17:05:58.032Z,99504.91
2019-02-11T17:09:12.275Z,99513.20
2019-02-11T17:12:26.078Z,99516.75
2019-02-11T17:15:47.277Z,99527.53
2019-02-11T17:19:09.469Z,99537.28
2019-02-11T17:22:20.295Z,99553.83
2019-02-11T17:25:34.067Z,99557.71
2019-02-11T17:28:47.996Z,99568.88
2019-02-11T17:32:01.877Z,99573.11
2019-02-11T17:35:15.772Z,99571.63
2019-02-11T17:38:29.709Z,99580.87
2019-02-11T17:41:43.274Z,99589.97
2019-02-11T17:44:56.968Z,99603.61
2019-02-11T17:48:10.552Z,99609.12
2019-02-11T17:51:24.247Z,99621.45
2019-02-11T17:54:37.839Z,99628.89
2019-02-11T17:57:51.431Z,99648.80
2019-02-11T18:01:05.100Z,99672.22
2019-02-11T18:04:18.555Z,99689.16
2019-02-11T18:07:32.264Z,99702.01
2019-02-11T18:10:45.906Z,99712.36
2019-02-11T18:13:59.826Z,99720.12
2019-02-11T18:17:13.296Z,99744.77
2019-02-11T18:20:26.995Z,99764.76
2019-02-11T18:23:40.686Z,99743.83
2019-02-11T18:26:54.143Z,99751.00
2019-02-11T18:30:09.122Z,99758.92
2019-02-11T18:33:22.587Z,99757.78
2019-02-11T18:36:36.064Z,99764.47
2019-02-11T18:39:49.766Z,99778.34
2019-02-11T18:43:03.331Z,99789.08
2019-02-11T18:46:16.778Z,99796.00
2019-02-11T18:49:34.543Z,99804.01
2019-02-11T18:52:45.955Z,99814.19
2019-02-11T18:55:59.355Z,99816.66
2019-02-11T18:59:12.987Z,99820.84
2019-02-11T19:02:26.452Z,99823.20
2019-02-11T19:05:39.902Z,99835.91
2019-02-11T19:08:53.372Z,99837.42
2019-02-11T19:12:07.192Z,99840.87
2019-02-11T19:15:20.978Z,99838.14
2019-02-11T19:18:34.443Z,99837.95
2019-02-11T19:21:48.136Z,99843.02
2019-02-11T19:25:01.953Z,99843.17
2019-02-11T19:28:15.457Z,99850.48
2019-02-11T19:31:29.435Z,99841.96
2019-02-11T19:34:42.899Z,99847.02
2019-02-11T19:37:56.470Z,99846.33
2019-02-11T19:41:10.267Z,99857.96
2019-02-11T19:44:23.729Z,99861.39
2019-02-11T19:47:37.219Z,99861.78
2019-02-11T19:50:50.682Z,99862.70
2019-02-11T19:54:04.936Z,99871.97
2019-02-11T19:57:18.710Z,99879.59
2019-02-11T20:00:32.509Z,99890.69
2019-02-11T20:03:46.336Z,99898.12
2019-02-11T20:06:59.814Z,99909.01
2019-02-11T20:10:13.787Z,99913.02
2019-02-11T20:13:27.474Z,99914.09
2019-02-11T20:16:41.025Z,99920.45
2019-02-11T20:20:00.169Z,99922.47
2019-02-11T20:23:10.051Z,99925.38
2019-02-11T20:26:24.009Z,99925.19
2019-02-11T20:29:37.704Z,99926.24
2019-02-11T20:32:51.491Z,99930.42
2019-02-11T20:36:05.192Z,99921.12
2019-02-11T20:39:18.994Z,99924.72
2019-02-11T20:42:32.675Z,99923.55
2019-02-11T20:45:46.135Z,99918.98
2019-02-11T20:48:59.837Z,99924.20
2019-02-11T20:52:13.401Z,99919.43
2019-02-11T20:55:26.853Z,99917.19
2019-02-11T20:58:40.764Z,99920.92
2019-02-11T21:01:54.218Z,99909.55
2019-02-11T21:05:08.152Z,99903.16
2019-02-11T21:08:21.864Z,99915.48
2019-02-11T21:11:35.566Z,99914.27
2019-02-11T21:14:49.267Z,99931.62
2019-02-11T21:18:02.715Z,99932.88
2019-02-11T21:21:16.169Z,99944.95
2019-02-11T21:24:29.625Z,99963.52
2019-02-11T21:27:43.427Z,99971.48
2019-02-11T21:30:56.884Z,99967.99
2019-02-11T21:34:10.390Z,99979.78
2019-02-11T21:37:23.790Z,99996.21
2019-02-11T21:40:37.246Z,100012.27
2019-02-11T21:43:50.688Z,100029.57
2019-02-11T21:47:04.144Z,100028.52
2019-02-11T21:50:26.079Z,100040.39
2019-02-11T21:53:33.069Z,100058.02
2019-02-11T21:56:46.968Z,100062.01
2019-02-11T22:00:00.669Z,100067.36
2019-02-11T22:03:14.215Z,100074.95
2019-02-11T22:06:28.009Z,100082.29
2019-02-11T22:09:41.715Z,100095.41
2019-02-11T22:12:55.523Z,100086.59
2019-02-11T22:16:09.231Z,100081.03
2019-02-11T22:19:24.784Z,100083.77
2019-02-11T22:22:38.736Z,100092.04
2019-02-11T22:25:52.416Z,100084.06
2019-02-11T22:29:05.864Z,100079.29
2019-02-11T22:32:19.315Z,100086.88
2019-02-11T22:35:32.755Z,100086.39
2019-02-11T22:38:46.310Z,100085.88
2019-02-11T22:41:59.859Z,100087.76
2019-02-11T22:45:15.542Z,100081.08
2019-02-11T22:48:28.999Z,100089.34
2019-02-11T22:51:42.686Z,100086.53
2019-02-11T22:54:56.371Z,100093.88
2019-02-11T22:58:09.825Z,100112.47
2019-02-11T23:01:23.579Z,100115.89
2019-02-11T23:04:37.025Z,100123.43
2019-02-11T23:07:50.695Z,100128.40
2019-02-11T23:11:04.243Z,100130.02
2019-02-11T23:14:17.703Z,100135.16
2019-02-11T23:17:31.161Z,100145.81
2019-02-11T23:20:51.746Z,100159.56
2019-02-11T23:24:00.112Z,100171.56
2019-02-11T23:27:13.893Z,100171.02
2019-02-11T23:30:27.812Z,100187.36
2019-02-11T23:33:41.600Z,100186.81
2019-02-11T23:36:55.148Z,100188.48
2019-02-11T23:40:08.817Z,100183.84
2019-02-11T23:43:22.613Z,100186.09
2019-02-11T23:46:36.155Z,100185.23
2019-02-11T23:49:49.628Z,100182.52
2019-02-11T23:53:03.286Z,100183.05
2019-02-11T23:56:16.727Z,100182.30
2019-02-11T23:59:30.404Z,100193.11
